sensor_id;sensor_type;location;lat;lon;timestamp;temperature;humidity
22908;DHT22;11620;50.050;8.690;2022-07-05T00:00:57;23.00;99.30
22908;DHT22;11620;50.050;8.690;2022-07-05T00:03:44;22.90;99.20
22908;DHT22;11620;50.050;8.690;2022-07-05T00:06:30;22.90;99.70
22908;DHT22;11620;50.050;8.690;2022-07-05T00:09:16;22.90;99.60
22908;DHT22;11620;50.050;8.690;2022-07-05T00:12:03;22.90;99.90
22908;DHT22;11620;50.050;8.690;2022-07-05T00:14:50;22.80;99.60
22908;DHT22;11620;50.050;8.690;2022-07-05T00:17:37;22.80;99.90
22908;DHT22;11620;50.050;8.690;2022-07-05T00:20:24;22.80;99.90
22908;DHT22;11620;50.050;8.690;2022-07-05T00:23:10;22.70;99.90
22908;DHT22;11620;50.050;8.690;2022-07-05T00:25:56;22.60;99.90
22908;DHT22;11620;50.050;8.690;2022-07-05T00:28:42;22.60;99.90
22908;DHT22;11620;50.050;8.690;2022-07-05T00:31:29;22.60;99.90
22908;DHT22;11620;50.050;8.690;2022-07-05T00:34:15;22.50;99.90
22908;DHT22;11620;50.050;8.690;2022-07-05T00:37:02;22.50;99.90
22908;DHT22;11620;50.050;8.690;2022-07-05T00:39:48;22.50;99.90
22908;DHT22;11620;50.050;8.690;2022-07-05T00:42:35;22.50;99.90
22908;DHT22;11620;50.050;8.690;2022-07-05T00:45:21;22.40;99.90
22908;DHT22;11620;50.050;8.690;2022-07-05T00:48:07;22.40;99.90
22908;DHT22;11620;50.050;8.690;2022-07-05T00:50:54;22.30;99.90
22908;DHT22;11620;50.050;8.690;2022-07-05T00:53:40;22.30;99.90
22908;DHT22;11620;50.050;8.690;2022-07-05T00:56:27;22.20;99.90
22908;DHT22;11620;50.050;8.690;2022-07-05T00:59:14;22.10;99.90
22908;DHT22;11620;50.050;8.690;2022-07-05T01:02:00;22.10;99.90
22908;DHT22;11620;50.050;8.690;2022-07-05T01:04:48;22.10;99.90
22908;DHT22;11620;50.050;8.690;2022-07-05T01:07:35;22.00;99.90
22908;DHT22;11620;50.050;8.690;2022-07-05T01:10:22;22.00;99.90
22908;DHT22;11620;50.050;8.690;2022-07-05T01:13:08;22.00;99.90
22908;DHT22;11620;50.050;8.690;2022-07-05T01:15:55;21.90;99.90
22908;DHT22;11620;50.050;8.690;2022-07-05T01:18:43;21.90;99.90
22908;DHT22;11620;50.050;8.690;2022-07-05T01:21:30;21.90;99.90
22908;DHT22;11620;50.050;8.690;2022-07-05T01:24:18;21.80;99.90
22908;DHT22;11620;50.050;8.690;2022-07-05T01:27:06;21.80;99.90
22908;DHT22;11620;50.050;8.690;2022-07-05T01:29:52;21.80;99.90
22908;DHT22;11620;50.050;8.690;2022-07-05T01:32:39;21.70;99.90
22908;DHT22;11620;50.050;8.690;2022-07-05T01:35:25;21.70;99.90
22908;DHT22;11620;50.050;8.690;2022-07-05T01:38:12;21.60;99.90
22908;DHT22;11620;50.050;8.690;2022-07-05T01:40:58;21.60;99.90
22908;DHT22;11620;50.050;8.690;2022-07-05T01:43:44;21.60;99.90
22908;DHT22;11620;50.050;8.690;2022-07-05T01:46:32;21.60;99.90
22908;DHT22;11620;50.050;8.690;2022-07-05T01:49:20;21.50;99.90
22908;DHT22;11620;50.050;8.690;2022-07-05T01:52:10;21.50;99.90
22908;DHT22;11620;50.050;8.690;2022-07-05T01:55:00;21.50;99.90
22908;DHT22;11620;50.050;8.690;2022-07-05T01:57:47;21.40;99.90
22908;DHT22;11620;50.050;8.690;2022-07-05T02:00:50;21.40;99.90
22908;DHT22;11620;50.050;8.690;2022-07-05T02:03:37;21.30;99.90
22908;DHT22;11620;50.050;8.690;2022-07-05T02:06:23;21.30;99.90
22908;DHT22;11620;50.050;8.690;2022-07-05T02:09:10;21.30;99.90
22908;DHT22;11620;50.050;8.690;2022-07-05T02:11:56;21.30;99.90
22908;DHT22;11620;50.050;8.690;2022-07-05T02:14:42;21.20;99.90
22908;DHT22;11620;50.050;8.690;2022-07-05T02:17:29;21.20;99.90
22908;DHT22;11620;50.050;8.690;2022-07-05T02:20:15;21.20;99.90
22908;DHT22;11620;50.050;8.690;2022-07-05T02:23:01;21.20;99.90
22908;DHT22;11620;50.050;8.690;2022-07-05T02:25:48;21.10;99.90
22908;DHT22;11620;50.050;8.690;2022-07-05T02:28:34;21.10;99.90
22908;DHT22;11620;50.050;8.690;2022-07-05T02:31:20;21.00;99.90
22908;DHT22;11620;50.050;8.690;2022-07-05T02:34:07;21.00;99.90
22908;DHT22;11620;50.050;8.690;2022-07-05T02:36:53;20.90;99.90
22908;DHT22;11620;50.050;8.690;2022-07-05T02:39:39;20.90;99.90
22908;DHT22;11620;50.050;8.690;2022-07-05T02:42:26;20.80;99.90
22908;DHT22;11620;50.050;8.690;2022-07-05T02:45:12;20.80;99.90
22908;DHT22;11620;50.050;8.690;2022-07-05T02:47:59;20.70;99.90
22908;DHT22;11620;50.050;8.690;2022-07-05T02:50:45;20.60;99.90
22908;DHT22;11620;50.050;8.690;2022-07-05T02:53:33;20.60;99.90
22908;DHT22;11620;50.050;8.690;2022-07-05T02:56:20;20.60;99.90
22908;DHT22;11620;50.050;8.690;2022-07-05T02:59:06;20.60;99.90
22908;DHT22;11620;50.050;8.690;2022-07-05T03:01:53;20.60;99.90
22908;DHT22;11620;50.050;8.690;2022-07-05T03:04:39;20.60;99.90
22908;DHT22;11620;50.050;8.690;2022-07-05T03:07:25;20.50;99.90
22908;DHT22;11620;50.050;8.690;2022-07-05T03:10:12;20.50;99.90
22908;DHT22;11620;50.050;8.690;2022-07-05T03:12:58;20.50;99.90
22908;DHT22;11620;50.050;8.690;2022-07-05T03:15:45;20.50;99.90
22908;DHT22;11620;50.050;8.690;2022-07-05T03:18:31;20.50;99.90
22908;DHT22;11620;50.050;8.690;2022-07-05T03:21:17;20.40;99.90
22908;DHT22;11620;50.050;8.690;2022-07-05T03:24:04;20.30;99.90
22908;DHT22;11620;50.050;8.690;2022-07-05T03:26:50;20.30;99.90
22908;DHT22;11620;50.050;8.690;2022-07-05T03:29:37;20.30;99.90
22908;DHT22;11620;50.050;8.690;2022-07-05T03:32:23;20.30;99.90
22908;DHT22;11620;50.050;8.690;2022-07-05T03:35:09;20.20;99.90
22908;DHT22;11620;50.050;8.690;2022-07-05T03:37:56;20.30;99.90
22908;DHT22;11620;50.050;8.690;2022-07-05T03:40:42;20.20;99.90
22908;DHT22;11620;50.050;8.690;2022-07-05T03:43:28;20.20;99.90
22908;DHT22;11620;50.050;8.690;2022-07-05T03:46:15;20.10;99.90
22908;DHT22;11620;50.050;8.690;2022-07-05T03:49:01;20.10;99.90
22908;DHT22;11620;50.050;8.690;2022-07-05T03:51:47;20.10;99.90
22908;DHT22;11620;50.050;8.690;2022-07-05T03:54:34;20.10;99.90
22908;DHT22;11620;50.050;8.690;2022-07-05T03:57:21;20.00;99.90
22908;DHT22;11620;50.050;8.690;2022-07-05T04:00:08;20.10;99.90
22908;DHT22;11620;50.050;8.690;2022-07-05T04:02:54;20.00;99.90
22908;DHT22;11620;50.050;8.690;2022-07-05T04:05:41;20.00;99.90
22908;DHT22;11620;50.050;8.690;2022-07-05T04:08:27;20.00;99.90
22908;DHT22;11620;50.050;8.690;2022-07-05T04:11:14;20.00;99.90
22908;DHT22;11620;50.050;8.690;2022-07-05T04:14:01;20.00;99.90
22908;DHT22;11620;50.050;8.690;2022-07-05T04:16:48;20.00;99.90
22908;DHT22;11620;50.050;8.690;2022-07-05T04:19:34;20.00;99.90
22908;DHT22;11620;50.050;8.690;2022-07-05T04:22:20;20.00;99.90
22908;DHT22;11620;50.050;8.690;2022-07-05T04:25:07;20.00;99.90
22908;DHT22;11620;50.050;8.690;2022-07-05T04:28:03;20.00;99.90
22908;DHT22;11620;50.050;8.690;2022-07-05T04:30:49;20.00;99.90
22908;DHT22;11620;50.050;8.690;2022-07-05T04:33:36;20.10;99.90
22908;DHT22;11620;50.050;8.690;2022-07-05T04:36:20;20.00;99.90
22908;DHT22;11620;50.050;8.690;2022-07-05T04:39:05;20.00;99.90
22908;DHT22;11620;50.050;8.690;2022-07-05T04:41:49;20.00;99.90
22908;DHT22;11620;50.050;8.690;2022-07-05T04:44:33;20.00;99.90
22908;DHT22;11620;50.050;8.690;2022-07-05T04:47:18;20.00;99.90
22908;DHT22;11620;50.050;8.690;2022-07-05T04:50:03;20.10;99.90
22908;DHT22;11620;50.050;8.690;2022-07-05T04:52:48;20.10;99.90
22908;DHT22;11620;50.050;8.690;2022-07-05T04:55:33;20.10;99.90
22908;DHT22;11620;50.050;8.690;2022-07-05T04:58:17;20.10;99.90
22908;DHT22;11620;50.050;8.690;2022-07-05T05:01:02;20.10;99.90
22908;DHT22;11620;50.050;8.690;2022-07-05T05:03:46;20.00;99.90
22908;DHT22;11620;50.050;8.690;2022-07-05T05:06:30;20.10;99.90
22908;DHT22;11620;50.050;8.690;2022-07-05T05:09:15;20.00;99.90
22908;DHT22;11620;50.050;8.690;2022-07-05T05:11:59;20.00;99.90
22908;DHT22;11620;50.050;8.690;2022-07-05T05:14:44;20.00;99.90
22908;DHT22;11620;50.050;8.690;2022-07-05T05:17:36;19.90;99.90
22908;DHT22;11620;50.050;8.690;2022-07-05T05:20:21;19.90;99.90
22908;DHT22;11620;50.050;8.690;2022-07-05T05:23:05;19.90;99.90
22908;DHT22;11620;50.050;8.690;2022-07-05T05:25:50;19.90;99.90
22908;DHT22;11620;50.050;8.690;2022-07-05T05:28:35;19.90;99.90
22908;DHT22;11620;50.050;8.690;2022-07-05T05:31:19;19.90;99.90
22908;DHT22;11620;50.050;8.690;2022-07-05T05:34:04;19.90;99.90
22908;DHT22;11620;50.050;8.690;2022-07-05T05:36:48;20.00;99.90
22908;DHT22;11620;50.050;8.690;2022-07-05T05:39:33;19.90;99.90
22908;DHT22;11620;50.050;8.690;2022-07-05T05:42:17;19.90;99.90
22908;DHT22;11620;50.050;8.690;2022-07-05T05:45:02;19.90;99.90
22908;DHT22;11620;50.050;8.690;2022-07-05T05:47:51;19.90;99.90
22908;DHT22;11620;50.050;8.690;2022-07-05T05:50:37;20.00;99.90
22908;DHT22;11620;50.050;8.690;2022-07-05T05:53:26;20.10;99.90
22908;DHT22;11620;50.050;8.690;2022-07-05T05:56:10;20.20;99.90
22908;DHT22;11620;50.050;8.690;2022-07-05T05:58:55;20.20;99.90
22908;DHT22;11620;50.050;8.690;2022-07-05T06:01:39;20.30;99.90
22908;DHT22;11620;50.050;8.690;2022-07-05T06:04:24;20.30;99.90
22908;DHT22;11620;50.050;8.690;2022-07-05T06:07:08;20.40;99.90
22908;DHT22;11620;50.050;8.690;2022-07-05T06:09:52;20.50;99.90
22908;DHT22;11620;50.050;8.690;2022-07-05T06:12:37;20.60;99.90
22908;DHT22;11620;50.050;8.690;2022-07-05T06:15:21;20.60;99.90
22908;DHT22;11620;50.050;8.690;2022-07-05T06:18:07;20.80;99.90
22908;DHT22;11620;50.050;8.690;2022-07-05T06:20:52;21.10;99.90
22908;DHT22;11620;50.050;8.690;2022-07-05T06:23:36;21.40;99.90
22908;DHT22;11620;50.050;8.690;2022-07-05T06:26:21;21.70;99.90
22908;DHT22;11620;50.050;8.690;2022-07-05T06:29:05;21.90;99.90
22908;DHT22;11620;50.050;8.690;2022-07-05T06:31:49;22.20;99.90
22908;DHT22;11620;50.050;8.690;2022-07-05T06:34:34;22.50;99.90
22908;DHT22;11620;50.050;8.690;2022-07-05T06:37:18;22.80;99.90
22908;DHT22;11620;50.050;8.690;2022-07-05T06:40:03;23.10;99.90
22908;DHT22;11620;50.050;8.690;2022-07-05T06:42:47;23.30;99.90
22908;DHT22;11620;50.050;8.690;2022-07-05T06:45:32;23.60;99.90
22908;DHT22;11620;50.050;8.690;2022-07-05T06:48:18;23.70;99.90
22908;DHT22;11620;50.050;8.690;2022-07-05T06:51:02;24.00;99.90
22908;DHT22;11620;50.050;8.690;2022-07-05T06:53:47;24.10;99.90
22908;DHT22;11620;50.050;8.690;2022-07-05T06:56:31;24.20;99.90
22908;DHT22;11620;50.050;8.690;2022-07-05T06:59:16;24.50;99.90
22908;DHT22;11620;50.050;8.690;2022-07-05T07:02:00;24.60;99.90
22908;DHT22;11620;50.050;8.690;2022-07-05T07:04:45;24.80;99.90
22908;DHT22;11620;50.050;8.690;2022-07-05T07:07:33;25.10;99.90
22908;DHT22;11620;50.050;8.690;2022-07-05T07:10:37;25.30;99.90
22908;DHT22;11620;50.050;8.690;2022-07-05T07:13:21;25.40;99.90
22908;DHT22;11620;50.050;8.690;2022-07-05T07:16:06;25.50;99.90
22908;DHT22;11620;50.050;8.690;2022-07-05T07:18:50;25.70;99.90
22908;DHT22;11620;50.050;8.690;2022-07-05T07:21:35;25.80;99.90
22908;DHT22;11620;50.050;8.690;2022-07-05T07:24:19;26.00;99.90
22908;DHT22;11620;50.050;8.690;2022-07-05T07:27:04;26.20;99.90
22908;DHT22;11620;50.050;8.690;2022-07-05T07:29:49;26.60;99.90
22908;DHT22;11620;50.050;8.690;2022-07-05T07:32:33;26.80;99.90
22908;DHT22;11620;50.050;8.690;2022-07-05T07:35:18;26.90;99.90
22908;DHT22;11620;50.050;8.690;2022-07-05T07:38:03;26.70;99.90
22908;DHT22;11620;50.050;8.690;2022-07-05T07:40:47;26.70;99.90
22908;DHT22;11620;50.050;8.690;2022-07-05T07:43:32;26.90;99.90
22908;DHT22;11620;50.050;8.690;2022-07-05T07:46:16;27.10;99.90
22908;DHT22;11620;50.050;8.690;2022-07-05T07:49:00;27.50;99.90
22908;DHT22;11620;50.050;8.690;2022-07-05T07:51:45;27.70;99.90
22908;DHT22;11620;50.050;8.690;2022-07-05T07:54:29;27.90;99.90
22908;DHT22;11620;50.050;8.690;2022-07-05T07:57:14;28.10;99.90
22908;DHT22;11620;50.050;8.690;2022-07-05T07:59:58;28.10;99.90
22908;DHT22;11620;50.050;8.690;2022-07-05T08:02:42;28.20;99.90
22908;DHT22;11620;50.050;8.690;2022-07-05T08:05:27;28.30;99.90
22908;DHT22;11620;50.050;8.690;2022-07-05T08:08:11;28.50;99.80
22908;DHT22;11620;50.050;8.690;2022-07-05T08:10:55;28.60;99.70
22908;DHT22;11620;50.050;8.690;2022-07-05T08:13:40;28.90;99.20
22908;DHT22;11620;50.050;8.690;2022-07-05T08:16:26;29.10;98.80
22908;DHT22;11620;50.050;8.690;2022-07-05T08:19:11;29.20;99.10
22908;DHT22;11620;50.050;8.690;2022-07-05T08:22:14;29.30;98.50
22908;DHT22;11620;50.050;8.690;2022-07-05T08:24:59;29.40;99.10
22908;DHT22;11620;50.050;8.690;2022-07-05T08:27:43;29.10;96.90
22908;DHT22;11620;50.050;8.690;2022-07-05T08:30:27;29.40;97.70
22908;DHT22;11620;50.050;8.690;2022-07-05T08:33:12;29.80;97.30
22908;DHT22;11620;50.050;8.690;2022-07-05T08:35:56;29.20;97.10
22908;DHT22;11620;50.050;8.690;2022-07-05T08:38:41;29.60;97.30
22908;DHT22;11620;50.050;8.690;2022-07-05T08:41:25;30.00;97.10
22908;DHT22;11620;50.050;8.690;2022-07-05T08:44:14;30.20;97.20
22908;DHT22;11620;50.050;8.690;2022-07-05T08:47:02;30.30;97.20
22908;DHT22;11620;50.050;8.690;2022-07-05T08:49:47;30.60;95.90
22908;DHT22;11620;50.050;8.690;2022-07-05T08:52:34;30.90;96.50
22908;DHT22;11620;50.050;8.690;2022-07-05T08:55:19;31.10;95.30
22908;DHT22;11620;50.050;8.690;2022-07-05T08:58:04;31.20;95.30
22908;DHT22;11620;50.050;8.690;2022-07-05T09:00:49;31.40;95.70
22908;DHT22;11620;50.050;8.690;2022-07-05T09:03:47;31.40;94.50
22908;DHT22;11620;50.050;8.690;2022-07-05T09:06:35;31.30;95.20
22908;DHT22;11620;50.050;8.690;2022-07-05T09:09:20;31.10;93.90
22908;DHT22;11620;50.050;8.690;2022-07-05T09:12:06;31.00;93.80
22908;DHT22;11620;50.050;8.690;2022-07-05T09:14:55;30.90;93.80
22908;DHT22;11620;50.050;8.690;2022-07-05T09:17:46;29.70;94.20
22908;DHT22;11620;50.050;8.690;2022-07-05T09:20:31;29.80;94.80
22908;DHT22;11620;50.050;8.690;2022-07-05T09:23:20;30.10;95.80
22908;DHT22;11620;50.050;8.690;2022-07-05T09:26:05;30.50;95.80
22908;DHT22;11620;50.050;8.690;2022-07-05T09:28:57;30.80;95.40
22908;DHT22;11620;50.050;8.690;2022-07-05T09:31:43;31.40;96.60
22908;DHT22;11620;50.050;8.690;2022-07-05T09:34:29;31.90;95.80
22908;DHT22;11620;50.050;8.690;2022-07-05T09:37:15;32.10;95.20
22908;DHT22;11620;50.050;8.690;2022-07-05T09:39:59;32.10;92.70
22908;DHT22;11620;50.050;8.690;2022-07-05T09:42:44;32.10;94.10
22908;DHT22;11620;50.050;8.690;2022-07-05T09:45:28;32.20;93.40
22908;DHT22;11620;50.050;8.690;2022-07-05T09:48:13;32.20;93.80
22908;DHT22;11620;50.050;8.690;2022-07-05T09:51:07;31.60;94.10
22908;DHT22;11620;50.050;8.690;2022-07-05T09:53:56;31.80;93.90
22908;DHT22;11620;50.050;8.690;2022-07-05T09:56:47;32.20;94.60
22908;DHT22;11620;50.050;8.690;2022-07-05T09:59:32;32.30;93.20
22908;DHT22;11620;50.050;8.690;2022-07-05T10:02:37;32.30;93.70
22908;DHT22;11620;50.050;8.690;2022-07-05T10:05:23;32.20;93.00
22908;DHT22;11620;50.050;8.690;2022-07-05T10:08:08;32.50;92.70
22908;DHT22;11620;50.050;8.690;2022-07-05T10:10:53;32.80;91.20
22908;DHT22;11620;50.050;8.690;2022-07-05T10:13:39;32.80;91.70
22908;DHT22;11620;50.050;8.690;2022-07-05T10:16:25;32.90;90.90
22908;DHT22;11620;50.050;8.690;2022-07-05T10:19:15;33.10;91.90
22908;DHT22;11620;50.050;8.690;2022-07-05T10:22:02;33.50;93.10
22908;DHT22;11620;50.050;8.690;2022-07-05T10:24:48;33.60;92.60
22908;DHT22;11620;50.050;8.690;2022-07-05T10:27:33;32.90;92.80
22908;DHT22;11620;50.050;8.690;2022-07-05T10:30:19;32.30;92.30
22908;DHT22;11620;50.050;8.690;2022-07-05T10:33:06;32.00;92.40
22908;DHT22;11620;50.050;8.690;2022-07-05T10:35:52;31.80;92.40
22908;DHT22;11620;50.050;8.690;2022-07-05T10:38:40;31.70;92.50
22908;DHT22;11620;50.050;8.690;2022-07-05T10:41:25;32.00;92.70
22908;DHT22;11620;50.050;8.690;2022-07-05T10:44:10;32.10;91.00
22908;DHT22;11620;50.050;8.690;2022-07-05T10:47:10;31.70;89.80
22908;DHT22;11620;50.050;8.690;2022-07-05T10:50:05;32.10;92.30
22908;DHT22;11620;50.050;8.690;2022-07-05T10:53:02;32.90;90.60
22908;DHT22;11620;50.050;8.690;2022-07-05T10:58:42;33.20;91.40
22908;DHT22;11620;50.050;8.690;2022-07-05T11:04:19;32.60;91.90
22908;DHT22;11620;50.050;8.690;2022-07-05T11:07:04;32.30;92.40
22908;DHT22;11620;50.050;8.690;2022-07-05T11:10:01;32.00;92.90
22908;DHT22;11620;50.050;8.690;2022-07-05T11:12:46;32.50;92.80
22908;DHT22;11620;50.050;8.690;2022-07-05T11:15:31;32.90;91.40
22908;DHT22;11620;50.050;8.690;2022-07-05T11:18:15;33.00;90.90
22908;DHT22;11620;50.050;8.690;2022-07-05T11:21:20;33.40;90.60
22908;DHT22;11620;50.050;8.690;2022-07-05T11:27:09;34.20;87.30
22908;DHT22;11620;50.050;8.690;2022-07-05T11:29:55;34.20;89.10
22908;DHT22;11620;50.050;8.690;2022-07-05T11:32:40;34.00;90.00
22908;DHT22;11620;50.050;8.690;2022-07-05T11:35:31;34.00;90.70
22908;DHT22;11620;50.050;8.690;2022-07-05T11:38:18;33.90;90.20
22908;DHT22;11620;50.050;8.690;2022-07-05T11:41:13;34.10;89.90
22908;DHT22;11620;50.050;8.690;2022-07-05T11:43:57;34.00;90.80
22908;DHT22;11620;50.050;8.690;2022-07-05T11:46:43;34.00;89.20
22908;DHT22;11620;50.050;8.690;2022-07-05T11:49:27;34.50;89.20
22908;DHT22;11620;50.050;8.690;2022-07-05T11:52:15;34.60;90.20
22908;DHT22;11620;50.050;8.690;2022-07-05T11:55:06;34.90;90.70
22908;DHT22;11620;50.050;8.690;2022-07-05T11:57:52;34.40;87.40
22908;DHT22;11620;50.050;8.690;2022-07-05T12:00:37;34.60;90.20
22908;DHT22;11620;50.050;8.690;2022-07-05T12:03:22;34.20;91.00
22908;DHT22;11620;50.050;8.690;2022-07-05T12:06:11;33.60;89.70
22908;DHT22;11620;50.050;8.690;2022-07-05T12:09:06;33.30;90.40
22908;DHT22;11620;50.050;8.690;2022-07-05T12:11:52;33.50;90.60
22908;DHT22;11620;50.050;8.690;2022-07-05T12:14:55;33.50;90.00
22908;DHT22;11620;50.050;8.690;2022-07-05T12:17:42;33.10;90.80
22908;DHT22;11620;50.050;8.690;2022-07-05T12:20:27;32.90;90.80
22908;DHT22;11620;50.050;8.690;2022-07-05T12:23:11;33.10;91.00
22908;DHT22;11620;50.050;8.690;2022-07-05T12:25:58;32.90;91.10
22908;DHT22;11620;50.050;8.690;2022-07-05T12:28:44;32.80;90.20
22908;DHT22;11620;50.050;8.690;2022-07-05T12:31:30;33.10;91.50
22908;DHT22;11620;50.050;8.690;2022-07-05T12:34:17;33.70;90.70
22908;DHT22;11620;50.050;8.690;2022-07-05T12:37:03;34.00;89.80
22908;DHT22;11620;50.050;8.690;2022-07-05T12:39:48;34.40;89.00
22908;DHT22;11620;50.050;8.690;2022-07-05T12:42:37;34.40;89.60
22908;DHT22;11620;50.050;8.690;2022-07-05T12:45:22;34.40;89.90
22908;DHT22;11620;50.050;8.690;2022-07-05T12:48:09;34.00;88.00
22908;DHT22;11620;50.050;8.690;2022-07-05T12:50:54;34.10;88.20
22908;DHT22;11620;50.050;8.690;2022-07-05T12:53:46;34.40;88.50
22908;DHT22;11620;50.050;8.690;2022-07-05T12:56:52;34.40;87.60
22908;DHT22;11620;50.050;8.690;2022-07-05T13:00:03;34.30;87.20
22908;DHT22;11620;50.050;8.690;2022-07-05T13:02:48;34.50;87.50
22908;DHT22;11620;50.050;8.690;2022-07-05T13:05:33;34.80;87.10
22908;DHT22;11620;50.050;8.690;2022-07-05T13:08:27;35.00;88.10
22908;DHT22;11620;50.050;8.690;2022-07-05T13:11:29;35.20;83.30
22908;DHT22;11620;50.050;8.690;2022-07-05T13:14:13;33.00;83.60
22908;DHT22;11620;50.050;8.690;2022-07-05T13:16:58;33.10;86.40
22908;DHT22;11620;50.050;8.690;2022-07-05T13:19:44;32.90;83.00
22908;DHT22;11620;50.050;8.690;2022-07-05T13:22:29;33.30;84.60
22908;DHT22;11620;50.050;8.690;2022-07-05T13:25:14;33.10;82.90
22908;DHT22;11620;50.050;8.690;2022-07-05T13:27:59;33.10;84.90
22908;DHT22;11620;50.050;8.690;2022-07-05T13:30:43;33.40;83.30
22908;DHT22;11620;50.050;8.690;2022-07-05T13:33:27;33.30;87.10
22908;DHT22;11620;50.050;8.690;2022-07-05T13:36:12;33.30;85.40
22908;DHT22;11620;50.050;8.690;2022-07-05T13:38:56;33.30;86.80
22908;DHT22;11620;50.050;8.690;2022-07-05T13:41:41;33.20;86.40
22908;DHT22;11620;50.050;8.690;2022-07-05T13:44:25;33.10;87.20
22908;DHT22;11620;50.050;8.690;2022-07-05T13:47:10;32.90;87.00
22908;DHT22;11620;50.050;8.690;2022-07-05T13:49:55;32.70;86.90
22908;DHT22;11620;50.050;8.690;2022-07-05T13:53:00;32.40;87.50
22908;DHT22;11620;50.050;8.690;2022-07-05T13:55:45;32.40;86.10
22908;DHT22;11620;50.050;8.690;2022-07-05T13:58:29;32.50;87.90
22908;DHT22;11620;50.050;8.690;2022-07-05T14:01:13;33.00;85.90
22908;DHT22;11620;50.050;8.690;2022-07-05T14:04:00;33.20;84.90
22908;DHT22;11620;50.050;8.690;2022-07-05T14:06:46;33.00;86.90
22908;DHT22;11620;50.050;8.690;2022-07-05T14:09:30;32.80;85.70
22908;DHT22;11620;50.050;8.690;2022-07-05T14:12:15;32.70;88.10
22908;DHT22;11620;50.050;8.690;2022-07-05T14:14:59;32.60;87.20
22908;DHT22;11620;50.050;8.690;2022-07-05T14:17:43;32.60;87.40
22908;DHT22;11620;50.050;8.690;2022-07-05T14:20:28;32.40;87.60
22908;DHT22;11620;50.050;8.690;2022-07-05T14:23:14;32.70;87.50
22908;DHT22;11620;50.050;8.690;2022-07-05T14:25:59;32.80;88.70
22908;DHT22;11620;50.050;8.690;2022-07-05T14:28:45;32.60;88.10
22908;DHT22;11620;50.050;8.690;2022-07-05T14:31:29;32.30;86.30
22908;DHT22;11620;50.050;8.690;2022-07-05T14:34:15;32.20;88.90
22908;DHT22;11620;50.050;8.690;2022-07-05T14:37:00;32.20;88.30
22908;DHT22;11620;50.050;8.690;2022-07-05T14:39:44;32.40;85.40
22908;DHT22;11620;50.050;8.690;2022-07-05T14:42:29;32.60;86.30
22908;DHT22;11620;50.050;8.690;2022-07-05T14:45:15;32.30;86.10
22908;DHT22;11620;50.050;8.690;2022-07-05T14:47:59;32.60;88.00
22908;DHT22;11620;50.050;8.690;2022-07-05T14:50:44;32.70;89.30
22908;DHT22;11620;50.050;8.690;2022-07-05T14:53:31;32.90;88.90
22908;DHT22;11620;50.050;8.690;2022-07-05T14:56:16;33.00;88.30
22908;DHT22;11620;50.050;8.690;2022-07-05T14:59:01;33.20;88.50
22908;DHT22;11620;50.050;8.690;2022-07-05T15:01:45;33.30;87.60
22908;DHT22;11620;50.050;8.690;2022-07-05T15:04:30;33.00;86.40
22908;DHT22;11620;50.050;8.690;2022-07-05T15:07:15;32.70;86.20
22908;DHT22;11620;50.050;8.690;2022-07-05T15:10:03;32.40;86.20
22908;DHT22;11620;50.050;8.690;2022-07-05T15:12:49;32.20;88.20
22908;DHT22;11620;50.050;8.690;2022-07-05T15:15:35;32.10;87.80
22908;DHT22;11620;50.050;8.690;2022-07-05T15:18:22;32.20;87.70
22908;DHT22;11620;50.050;8.690;2022-07-05T15:21:16;32.10;89.50
22908;DHT22;11620;50.050;8.690;2022-07-05T15:24:03;32.20;89.80
22908;DHT22;11620;50.050;8.690;2022-07-05T15:26:49;32.20;90.30
22908;DHT22;11620;50.050;8.690;2022-07-05T15:29:37;32.20;90.10
22908;DHT22;11620;50.050;8.690;2022-07-05T15:32:23;32.30;90.30
22908;DHT22;11620;50.050;8.690;2022-07-05T15:35:09;32.40;90.50
22908;DHT22;11620;50.050;8.690;2022-07-05T15:37:56;32.60;89.80
22908;DHT22;11620;50.050;8.690;2022-07-05T15:40:42;32.70;90.30
22908;DHT22;11620;50.050;8.690;2022-07-05T15:43:28;32.70;90.50
22908;DHT22;11620;50.050;8.690;2022-07-05T15:46:16;32.60;90.40
22908;DHT22;11620;50.050;8.690;2022-07-05T15:49:03;32.30;90.30
22908;DHT22;11620;50.050;8.690;2022-07-05T15:51:49;32.20;90.20
22908;DHT22;11620;50.050;8.690;2022-07-05T15:54:35;32.20;90.60
22908;DHT22;11620;50.050;8.690;2022-07-05T15:57:22;32.20;90.10
22908;DHT22;11620;50.050;8.690;2022-07-05T16:00:12;32.20;91.10
22908;DHT22;11620;50.050;8.690;2022-07-05T16:02:58;32.00;90.50
22908;DHT22;11620;50.050;8.690;2022-07-05T16:05:45;32.00;91.10
22908;DHT22;11620;50.050;8.690;2022-07-05T16:08:31;32.00;90.50
22908;DHT22;11620;50.050;8.690;2022-07-05T16:11:18;31.80;91.10
22908;DHT22;11620;50.050;8.690;2022-07-05T16:14:05;31.70;91.00
22908;DHT22;11620;50.050;8.690;2022-07-05T16:16:51;31.60;91.30
22908;DHT22;11620;50.050;8.690;2022-07-05T16:19:38;31.50;91.20
22908;DHT22;11620;50.050;8.690;2022-07-05T16:22:24;31.50;90.70
22908;DHT22;11620;50.050;8.690;2022-07-05T16:25:10;31.40;90.90
22908;DHT22;11620;50.050;8.690;2022-07-05T16:27:57;31.40;90.60
22908;DHT22;11620;50.050;8.690;2022-07-05T16:30:43;31.30;91.00
22908;DHT22;11620;50.050;8.690;2022-07-05T16:33:31;31.30;91.00
22908;DHT22;11620;50.050;8.690;2022-07-05T16:36:22;31.30;91.20
22908;DHT22;11620;50.050;8.690;2022-07-05T16:39:09;31.30;91.60
22908;DHT22;11620;50.050;8.690;2022-07-05T16:41:55;31.00;90.80
22908;DHT22;11620;50.050;8.690;2022-07-05T16:44:42;30.90;91.50
22908;DHT22;11620;50.050;8.690;2022-07-05T16:47:28;30.80;90.60
22908;DHT22;11620;50.050;8.690;2022-07-05T16:50:14;30.80;91.40
22908;DHT22;11620;50.050;8.690;2022-07-05T16:53:01;30.80;91.10
22908;DHT22;11620;50.050;8.690;2022-07-05T16:55:47;30.90;92.20
22908;DHT22;11620;50.050;8.690;2022-07-05T16:58:34;30.70;92.10
22908;DHT22;11620;50.050;8.690;2022-07-05T17:01:23;30.50;92.00
22908;DHT22;11620;50.050;8.690;2022-07-05T17:04:10;30.40;92.70
22908;DHT22;11620;50.050;8.690;2022-07-05T17:06:56;30.20;92.80
22908;DHT22;11620;50.050;8.690;2022-07-05T17:09:43;30.10;93.20
22908;DHT22;11620;50.050;8.690;2022-07-05T17:12:29;30.00;93.00
22908;DHT22;11620;50.050;8.690;2022-07-05T17:15:16;29.90;92.80
22908;DHT22;11620;50.050;8.690;2022-07-05T17:18:04;29.80;93.00
22908;DHT22;11620;50.050;8.690;2022-07-05T17:20:50;29.70;93.30
22908;DHT22;11620;50.050;8.690;2022-07-05T17:23:36;29.70;93.00
22908;DHT22;11620;50.050;8.690;2022-07-05T17:26:24;29.50;93.20
22908;DHT22;11620;50.050;8.690;2022-07-05T17:29:11;29.40;93.20
22908;DHT22;11620;50.050;8.690;2022-07-05T17:31:57;29.40;93.10
22908;DHT22;11620;50.050;8.690;2022-07-05T17:34:44;29.40;93.90
22908;DHT22;11620;50.050;8.690;2022-07-05T17:37:30;29.20;93.10
22908;DHT22;11620;50.050;8.690;2022-07-05T17:40:19;29.30;93.70